createdAt,value
2022-08-17T00:02:26.783Z,23.30
2022-08-17T00:05:31.656Z,23.30
2022-08-17T00:08:40.131Z,23.30
2022-08-17T00:12:03.897Z,23.20
2022-08-17T00:15:10.686Z,23.20
2022-08-17T00:19:05.710Z,23.20
2022-08-17T00:22:32.942Z,23.10
2022-08-17T00:25:07.181Z,23.10
2022-08-17T00:28:10.209Z,23.10
2022-08-17T00:31:13.513Z,23.00
2022-08-17T00:34:16.718Z,23.00
2022-08-17T00:37:19.675Z,22.90
2022-08-17T00:40:25.614Z,22.90
2022-08-17T00:43:32.474Z,22.90
2022-08-17T00:46:39.234Z,22.90
2022-08-17T00:49:42.213Z,22.90
2022-08-17T00:52:51.417Z,22.90
2022-08-17T00:55:56.004Z,22.90
2022-08-17T00:58:59.963Z,22.80
2022-08-17T01:02:04.533Z,22.60
2022-08-17T01:05:09.004Z,22.50
2022-08-17T01:08:14.608Z,22.50
2022-08-17T01:11:20.939Z,22.50
2022-08-17T01:14:25.732Z,22.50
2022-08-17T01:17:28.862Z,22.50
2022-08-17T01:20:32.354Z,22.50
2022-08-17T01:23:47.455Z,22.30
2022-08-17T01:26:50.727Z,22.30
2022-08-17T01:29:58.621Z,22.30
2022-08-17T01:33:01.553Z,22.30
2022-08-17T01:36:06.859Z,22.30
2022-08-17T01:39:17.112Z,22.20
2022-08-17T01:42:25.531Z,22.20
2022-08-17T01:45:32.145Z,22.20
2022-08-17T01:48:39.237Z,22.20
2022-08-17T01:51:42.207Z,22.20
2022-08-17T01:54:48.246Z,22.10
2022-08-17T01:57:51.216Z,22.10
2022-08-17T02:01:01.044Z,22.20
2022-08-17T02:04:06.480Z,22.10
2022-08-17T02:07:09.399Z,22.10
2022-08-17T02:10:20.174Z,22.10
2022-08-17T02:13:23.314Z,22.10
2022-08-17T02:16:26.232Z,22.00
2022-08-17T02:19:39.478Z,21.90
2022-08-17T02:22:45.401Z,21.90
2022-08-17T02:25:50.096Z,21.80
2022-08-17T02:28:53.593Z,21.80
2022-08-17T02:31:58.517Z,21.80
2022-08-17T02:35:01.975Z,21.80
2022-08-17T02:38:05.050Z,21.80
2022-08-17T02:41:10.145Z,21.80
2022-08-17T02:44:13.454Z,21.80
2022-08-17T02:47:36.709Z,21.70
2022-08-17T02:50:39.827Z,21.70
2022-08-17T02:53:42.698Z,21.70
2022-08-17T02:56:46.933Z,21.70
2022-08-17T02:59:49.936Z,21.60
2022-08-17T03:02:53.378Z,21.60
2022-08-17T03:05:56.392Z,21.60
2022-08-17T03:08:59.381Z,21.60
2022-08-17T03:12:08.575Z,21.60
2022-08-17T03:15:14.664Z,21.60
2022-08-17T03:18:24.663Z,21.50
2022-08-17T03:21:28.824Z,21.50
2022-08-17T03:24:31.779Z,21.40
2022-08-17T03:27:36.239Z,21.30
2022-08-17T03:30:42.409Z,21.30
2022-08-17T03:33:45.631Z,21.30
2022-08-17T03:36:48.682Z,21.30
2022-08-17T03:39:51.686Z,21.10
2022-08-17T03:42:56.006Z,21.10
2022-08-17T03:46:34.126Z,21.00
2022-08-17T03:49:55.413Z,21.00
2022-08-17T03:53:15.767Z,21.10
2022-08-17T03:56:36.281Z,21.00
2022-08-17T03:59:41.296Z,21.00
2022-08-17T04:02:44.575Z,21.00
2022-08-17T04:05:47.556Z,21.00
2022-08-17T04:08:50.437Z,21.10
2022-08-17T04:11:54.159Z,21.00
2022-08-17T04:15:01.473Z,21.00
2022-08-17T04:18:04.438Z,21.00
2022-08-17T04:21:10.184Z,21.00
2022-08-17T04:24:13.075Z,21.00
2022-08-17T04:27:15.982Z,21.00
2022-08-17T04:30:20.933Z,21.00
2022-08-17T04:33:25.958Z,21.00
2022-08-17T04:36:28.918Z,21.00
2022-08-17T04:39:33.849Z,21.00
2022-08-17T04:42:35.959Z,21.00
2022-08-17T04:45:54.897Z,21.00
2022-08-17T04:48:59.368Z,21.00
2022-08-17T04:52:04.541Z,21.00
2022-08-17T04:55:08.648Z,21.00
2022-08-17T04:58:12.092Z,21.00
2022-08-17T05:01:16.831Z,21.00
2022-08-17T05:04:34.049Z,21.00
2022-08-17T05:07:38.210Z,21.00
2022-08-17T05:10:45.559Z,21.00
2022-08-17T05:13:50.226Z,20.90
2022-08-17T05:16:54.650Z,21.00
2022-08-17T05:19:57.566Z,20.90
2022-08-17T05:23:04.526Z,20.90
2022-08-17T05:26:08.073Z,20.90
2022-08-17T05:29:14.596Z,21.00
2022-08-17T05:32:39.406Z,21.00
2022-08-17T05:35:46.961Z,21.00
2022-08-17T05:38:50.595Z,21.10
2022-08-17T05:41:53.482Z,21.00
2022-08-17T05:44:58.817Z,21.10
2022-08-17T05:48:03.303Z,21.20
2022-08-17T05:51:21.960Z,21.20
2022-08-17T05:54:39.401Z,21.30
2022-08-17T05:57:56.158Z,21.30
2022-08-17T06:01:08.839Z,21.30
2022-08-17T06:04:22.982Z,21.20
2022-08-17T06:07:33.095Z,21.30
2022-08-17T06:10:43.557Z,21.40
2022-08-17T06:14:04.865Z,21.40
2022-08-17T06:17:12.485Z,21.50
2022-08-17T06:20:17.166Z,21.60
2022-08-17T06:23:27.562Z,21.60
2022-08-17T06:26:38.312Z,21.60
2022-08-17T06:29:51.257Z,21.70
2022-08-17T06:32:57.294Z,21.80
2022-08-17T06:36:10.972Z,21.80
2022-08-17T06:39:30.491Z,21.90
2022-08-17T06:42:54.790Z,21.90
2022-08-17T06:46:16.529Z,22.00
2022-08-17T06:49:25.367Z,22.10
2022-08-17T06:52:42.136Z,22.10
2022-08-17T06:55:54.837Z,22.20
2022-08-17T06:58:59.729Z,22.30
2022-08-17T07:02:06.324Z,22.40
2022-08-17T07:05:10.915Z,22.50
2022-08-17T07:08:20.827Z,22.50
2022-08-17T07:11:30.534Z,22.60
2022-08-17T07:14:38.724Z,22.70
2022-08-17T07:17:48.131Z,22.90
2022-08-17T07:20:55.927Z,23.00
2022-08-17T07:24:08.214Z,23.10
2022-08-17T07:27:14.800Z,23.00
2022-08-17T07:30:21.509Z,23.10
2022-08-17T07:33:26.878Z,23.20
2022-08-17T07:36:33.743Z,23.30
2022-08-17T07:39:59.743Z,23.30
2022-08-17T07:43:23.197Z,23.30
2022-08-17T07:46:47.682Z,23.50
2022-08-17T07:49:50.726Z,23.70
2022-08-17T07:52:53.753Z,23.70
2022-08-17T07:55:58.458Z,23.80
2022-08-17T07:59:10.286Z,23.90
2022-08-17T08:02:31.965Z,24.00
2022-08-17T08:05:51.031Z,24.00
2022-08-17T08:08:56.164Z,24.10
2022-08-17T08:12:03.094Z,24.30
2022-08-17T08:15:15.389Z,24.40
2022-08-17T08:18:53.421Z,24.50
2022-08-17T08:21:52.267Z,24.60
2022-08-17T08:25:05.320Z,24.70
2022-08-17T08:28:20.157Z,24.80
2022-08-17T08:31:31.627Z,24.90
2022-08-17T08:35:01.339Z,24.90
2022-08-17T08:38:22.363Z,25.00
2022-08-17T08:41:42.647Z,25.20
2022-08-17T08:45:00.997Z,25.50
2022-08-17T08:48:23.186Z,25.50
2022-08-17T08:51:52.892Z,25.40
2022-08-17T08:55:03.289Z,25.40
2022-08-17T08:58:31.383Z,25.30
2022-08-17T09:01:40.425Z,25.60
2022-08-17T09:05:14.023Z,25.80
2022-08-17T09:08:25.352Z,26.00
2022-08-17T09:12:02.811Z,26.20
2022-08-17T09:15:12.354Z,26.40
2022-08-17T09:18:59.793Z,26.40
2022-08-17T09:21:55.446Z,26.60
2022-08-17T09:25:04.516Z,26.60
2022-08-17T09:28:10.883Z,26.70
2022-08-17T09:31:21.307Z,26.90
2022-08-17T09:34:33.442Z,27.10
2022-08-17T09:37:48.683Z,27.20
2022-08-17T09:40:57.234Z,27.40
2022-08-17T09:44:03.591Z,27.50
2022-08-17T09:47:12.489Z,27.50
2022-08-17T09:50:55.453Z,27.70
2022-08-17T09:53:44.986Z,27.80
2022-08-17T09:57:25.693Z,28.10
2022-08-17T10:00:27.674Z,28.30
2022-08-17T10:03:46.008Z,28.40
2022-08-17T10:06:59.011Z,28.20
2022-08-17T10:10:14.535Z,28.20
2022-08-17T10:13:26.455Z,28.20
2022-08-17T10:16:38.807Z,28.50
2022-08-17T10:19:46.450Z,28.70
2022-08-17T10:23:24.223Z,29.00
2022-08-17T10:26:46.235Z,29.20
2022-08-17T10:29:57.002Z,29.40
2022-08-17T10:33:02.863Z,29.40
2022-08-17T10:36:14.533Z,29.50
2022-08-17T10:39:25.908Z,29.50
2022-08-17T10:42:33.016Z,29.60
2022-08-17T10:45:47.411Z,29.60
2022-08-17T10:49:32.598Z,29.70
2022-08-17T10:52:50.030Z,29.60
2022-08-17T10:56:23.206Z,29.50
2022-08-17T10:59:52.352Z,29.70
2022-08-17T11:02:57.469Z,29.80
2022-08-17T11:06:12.666Z,29.90
2022-08-17T11:09:28.577Z,30.20
2022-08-17T11:12:42.455Z,30.50
2022-08-17T11:15:57.627Z,30.90
2022-08-17T11:19:18.919Z,30.90
2022-08-17T11:23:02.401Z,30.90
2022-08-17T11:26:26.138Z,30.90
2022-08-17T11:29:36.804Z,31.10
2022-08-17T11:32:47.717Z,31.30
2022-08-17T11:36:04.081Z,31.50
2022-08-17T11:39:23.246Z,31.40
2022-08-17T11:42:36.258Z,31.60
2022-08-17T11:46:01.133Z,31.50
2022-08-17T11:49:28.567Z,31.60
2022-08-17T11:52:46.041Z,31.60
2022-08-17T11:56:05.813Z,31.70
2022-08-17T11:59:51.273Z,31.80
2022-08-17T12:03:53.739Z,31.80
2022-08-17T12:07:01.310Z,32.00
2022-08-17T12:10:07.342Z,32.00
2022-08-17T12:13:15.599Z,32.10
2022-08-17T12:16:20.418Z,32.10
2022-08-17T12:19:27.573Z,32.20
2022-08-17T12:22:40.864Z,32.30
2022-08-17T12:25:50.640Z,32.30
2022-08-17T12:28:57.365Z,32.50
2022-08-17T12:32:03.527Z,32.70
2022-08-17T12:35:21.404Z,32.80
2022-08-17T12:38:31.944Z,32.90
2022-08-17T12:41:40.811Z,32.80
2022-08-17T12:44:50.732Z,32.70
2022-08-17T12:48:02.701Z,32.80
2022-08-17T12:51:08.911Z,33.00
2022-08-17T12:54:25.415Z,33.20
2022-08-17T12:57:33.587Z,33.20
2022-08-17T13:00:41.183Z,33.20
2022-08-17T13:03:53.454Z,33.30
2022-08-17T13:06:59.841Z,33.40
2022-08-17T13:10:04.268Z,33.40
2022-08-17T13:13:23.297Z,33.40
2022-08-17T13:16:28.485Z,33.50
2022-08-17T13:19:41.138Z,33.60
2022-08-17T13:22:54.166Z,33.50
2022-08-17T13:26:01.350Z,33.50
2022-08-17T13:29:08.114Z,33.60
2022-08-17T13:32:20.052Z,33.50
2022-08-17T13:35:36.452Z,33.60
2022-08-17T13:38:50.087Z,33.60
2022-08-17T13:41:56.167Z,33.60
2022-08-17T13:44:59.621Z,33.60
2022-08-17T13:48:07.984Z,33.60
2022-08-17T13:51:24.559Z,33.60
2022-08-17T13:54:33.234Z,33.50
2022-08-17T13:57:37.202Z,33.50
2022-08-17T14:00:40.752Z,33.60
2022-08-17T14:03:44.337Z,33.60
2022-08-17T14:06:54.026Z,33.60
2022-08-17T14:10:00.428Z,33.70
2022-08-17T14:13:03.399Z,33.70
2022-08-17T14:16:06.581Z,33.80
2022-08-17T14:19:11.513Z,33.90
2022-08-17T14:22:28.347Z,34.00
2022-08-17T14:25:33.989Z,34.00
2022-08-17T14:28:38.654Z,34.00
2022-08-17T14:31:57.297Z,34.00
2022-08-17T14:35:00.943Z,34.10
2022-08-17T14:38:03.885Z,34.20
2022-08-17T14:41:08.210Z,34.10
2022-08-17T14:44:13.142Z,34.10
2022-08-17T14:47:16.046Z,34.10
2022-08-17T14:50:19.700Z,34.20
2022-08-17T14:53:22.727Z,34.20
2022-08-17T14:56:27.665Z,34.20
2022-08-17T14:59:35.522Z,34.20
2022-08-17T15:02:46.712Z,34.20
2022-08-17T15:05:49.714Z,34.10
2022-08-17T15:08:53.562Z,34.10
2022-08-17T15:11:58.719Z,34.10
2022-08-17T15:15:01.980Z,34.10
2022-08-17T15:18:08.325Z,34.20
2022-08-17T15:21:11.281Z,34.10
2022-08-17T15:24:15.155Z,34.20
2022-08-17T15:27:25.783Z,34.30
2022-08-17T15:30:36.215Z,34.30
2022-08-17T15:33:40.206Z,34.20
2022-08-17T15:36:49.030Z,34.20
2022-08-17T15:39:52.756Z,34.20
2022-08-17T15:42:57.762Z,34.20
2022-08-17T15:46:02.269Z,34.10
2022-08-17T15:49:05.167Z,34.00
2022-08-17T15:52:16.928Z,34.00
2022-08-17T15:55:23.938Z,33.90
2022-08-17T15:58:32.219Z,33.90
2022-08-17T16:03:01.742Z,33.90
2022-08-17T16:05:04.570Z,33.80
2022-08-17T16:08:17.094Z,33.80
2022-08-17T16:11:23.648Z,33.70
2022-08-17T16:14:32.364Z,33.70
2022-08-17T16:17:39.901Z,33.60
2022-08-17T16:20:43.650Z,33.60
2022-08-17T16:23:47.058Z,33.50
2022-08-17T16:26:49.956Z,33.50
2022-08-17T16:29:54.287Z,33.50
2022-08-17T16:33:00.495Z,33.40
2022-08-17T16:36:03.539Z,33.40
2022-08-17T16:39:06.497Z,33.30
2022-08-17T16:42:24.499Z,33.30
2022-08-17T16:45:31.400Z,33.30
2022-08-17T16:48:34.300Z,33.30
2022-08-17T16:51:37.955Z,33.20
2022-08-17T16:54:43.598Z,33.10
2022-08-17T16:57:50.003Z,33.10
2022-08-17T17:00:58.180Z,33.00
2022-08-17T17:04:05.394Z,32.90
2022-08-17T17:07:17.990Z,32.80
2022-08-17T17:10:23.710Z,32.70
2022-08-17T17:13:30.758Z,32.60
2022-08-17T17:16:45.738Z,32.60
2022-08-17T17:19:55.926Z,32.50
2022-08-17T17:23:06.214Z,32.40
2022-08-17T17:26:31.844Z,32.40
2022-08-17T17:29:48.554Z,32.30
2022-08-17T17:32:59.609Z,32.30
2022-08-17T17:36:08.799Z,32.20
2022-08-17T17:39:16.276Z,32.20
2022-08-17T17:42:22.607Z,32.00
2022-08-17T17:45:31.259Z,32.00
2022-08-17T17:48:35.651Z,31.80
2022-08-17T17:52:08.652Z,31.80
2022-08-17T17:55:23.932Z,31.80
2022-08-17T17:58:38.878Z,31.70
2022-08-17T18:01:50.690Z,31.60
2022-08-17T18:05:02.879Z,31.60
2022-08-17T18:08:16.565Z,31.50
2022-08-17T18:11:35.298Z,31.50
2022-08-17T18:14:52.456Z,31.40
2022-08-17T18:18:37.897Z,31.30
2022-08-17T18:21:47.329Z,31.30
2022-08-17T18:24:56.137Z,31.20
2022-08-17T18:27:59.455Z,31.10
2022-08-17T18:31:13.010Z,30.90
2022-08-17T18:34:45.964Z,30.80
2022-08-17T18:37:52.823Z,30.70
2022-08-17T18:41:20.315Z,30.70
2022-08-17T18:44:29.102Z,30.60
2022-08-17T18:47:52.449Z,30.50
2022-08-17T18:50:59.664Z,30.40
2022-08-17T18:54:15.270Z,30.40
2022-08-17T18:57:32.599Z,30.30
2022-08-17T19:00:38.451Z,30.20
2022-08-17T19:03:44.392Z,30.10
2022-08-17T19:06:47.537Z,30.10
2022-08-17T19:09:56.622Z,30.00
2022-08-17T19:13:12.188Z,29.90
2022-08-17T19:16:22.030Z,29.80
2022-08-17T19:19:32.859Z,29.80
2022-08-17T19:22:46.864Z,29.70
2022-08-17T19:25:54.325Z,29.60
2022-08-17T19:29:03.462Z,29.60
2022-08-17T19:32:10.572Z,29.50
2022-08-17T19:35:17.565Z,29.40
2022-08-17T19:38:33.269Z,29.40
2022-08-17T19:41:46.525Z,29.30
2022-08-17T19:44:57.563Z,29.30
2022-08-17T19:48:13.615Z,29.20
2022-08-17T19:51:25.605Z,29.20
2022-08-17T19:54:35.457Z,29.10
2022-08-17T19:57:50.558Z,29.10
2022-08-17T20:00:55.517Z,29.00
2022-08-17T20:04:08.200Z,28.90
2022-08-17T20:07:17.845Z,28.90
2022-08-17T20:10:31.768Z,28.90
2022-08-17T20:13:41.124Z,28.90
2022-08-17T20:16:44.742Z,28.80
2022-08-17T20:19:53.283Z,28.80
2022-08-17T20:23:04.976Z,28.70
2022-08-17T20:26:20.133Z,28.70
2022-08-17T20:29:55.534Z,28.70
2022-08-17T20:33:00.216Z,28.70
2022-08-17T20:36:15.309Z,28.60
2022-08-17T20:39:34.651Z,28.50
2022-08-17T20:42:39.150Z,28.50
2022-08-17T20:46:14.011Z,28.50
2022-08-17T20:49:26.075Z,28.40
2022-08-17T20:52:52.969Z,28.40
2022-08-17T20:55:56.350Z,28.30
2022-08-17T20:59:01.316Z,28.30
2022-08-17T21:02:18.497Z,28.30
2022-08-17T21:05:32.468Z,28.30
2022-08-17T21:08:45.687Z,28.30
2022-08-17T21:12:04.601Z,28.30
2022-08-17T21:15:18.325Z,28.30
2022-08-17T21:18:32.531Z,28.30
2022-08-17T21:22:02.163Z,28.30
2022-08-17T21:25:22.046Z,28.30
2022-08-17T21:28:36.399Z,28.30
2022-08-17T21:32:24.613Z,28.20
2022-08-17T21:35:47.324Z,28.20
2022-08-17T21:38:57.942Z,28.10
2022-08-17T21:42:01.846Z,28.10
2022-08-17T21:45:11.949Z,28.10
2022-08-17T21:48:17.880Z,28.10
2022-08-17T21:51:27.456Z,28.00
2022-08-17T21:54:35.681Z,28.00
2022-08-17T21:57:52.731Z,28.00
2022-08-17T22:01:25.183Z,27.90
2022-08-17T22:04:31.543Z,27.90
2022-08-17T22:07:39.426Z,27.80
2022-08-17T22:10:44.722Z,27.80
2022-08-17T22:13:47.852Z,27.80
2022-08-17T22:17:14.691Z,27.70
2022-08-17T22:20:20.267Z,27.60
2022-08-17T22:23:45.226Z,27.30
2022-08-17T22:27:11.606Z,27.00
2022-08-17T22:30:26.254Z,26.90
2022-08-17T22:33:32.452Z,26.90
2022-08-17T22:36:36.530Z,26.90
2022-08-17T22:39:41.691Z,26.80
2022-08-17T22:42:47.870Z,26.60
2022-08-17T22:45:54.429Z,26.60
2022-08-17T22:49:00.309Z,26.60
2022-08-17T22:52:06.035Z,26.60
2022-08-17T22:55:35.306Z,26.40
2022-08-17T22:59:02.360Z,26.30
2022-08-17T23:02:21.718Z,26.30
2022-08-17T23:05:25.434Z,26.10
2022-08-17T23:08:28.330Z,26.10
2022-08-17T23:11:50.003Z,26.00
2022-08-17T23:15:00.642Z,25.90
2022-08-17T23:18:04.674Z,25.80
2022-08-17T23:21:07.766Z,25.70
2022-08-17T23:24:11.877Z,25.60
2022-08-17T23:27:16.259Z,25.60
2022-08-17T23:30:19.365Z,25.60
2022-08-17T23:33:27.299Z,25.40
2022-08-17T23:36:31.590Z,25.40
2022-08-17T23:39:34.661Z,25.20
2022-08-17T23:42:43.675Z,25.10
2022-08-17T23:45:49.388Z,25.10
2022-08-17T23:48:54.126Z,25.10
2022-08-17T23:51:57.045Z,25.10
2022-08-17T23:55:00.274Z,25.10
2022-08-17T23:58:05.901Z,24.90
